createdAt,value
2022-10-08T00:00:47.062Z,10.63
2022-10-08T00:01:47.074Z,10.46
2022-10-08T00:02:47.303Z,10.54
2022-10-08T00:03:47.122Z,10.53
2022-10-08T00:04:46.990Z,10.48
2022-10-08T00:05:46.973Z,10.51
2022-10-08T00:06:46.948Z,10.53
2022-10-08T00:07:46.934Z,10.49
2022-10-08T00:08:46.974Z,10.42
2022-10-08T00:09:46.900Z,10.49
2022-10-08T00:10:46.894Z,10.42
2022-10-08T00:11:46.865Z,10.41
2022-10-08T00:12:47.108Z,10.41
2022-10-08T00:13:46.858Z,10.35
2022-10-08T00:14:46.818Z,10.33
2022-10-08T00:15:46.908Z,10.23
2022-10-08T00:16:46.781Z,10.26
2022-10-08T00:17:46.758Z,10.22
2022-10-08T00:18:46.775Z,10.22
2022-10-08T00:19:46.731Z,10.22
2022-10-08T00:20:46.705Z,10.19
2022-10-08T00:21:46.688Z,10.25
2022-10-08T00:22:46.845Z,10.19
2022-10-08T00:23:46.681Z,10.20
2022-10-08T00:24:46.640Z,10.15
2022-10-08T00:25:46.619Z,10.19
2022-10-08T00:26:46.609Z,10.15
2022-10-08T00:27:46.593Z,10.07
2022-10-08T00:28:46.614Z,10.12
2022-10-08T00:29:46.553Z,10.10
2022-10-08T00:30:46.532Z,10.13
2022-10-08T00:31:46.565Z,10.12
2022-10-08T00:32:46.711Z,10.13
2022-10-08T00:33:46.519Z,10.04
2022-10-08T00:34:46.459Z,9.99
2022-10-08T00:35:46.440Z,9.99
2022-10-08T00:36:46.417Z,10.05
2022-10-08T00:37:47.477Z,9.94
2022-10-08T00:38:46.415Z,9.95
2022-10-08T00:39:47.379Z,9.97
2022-10-08T00:40:46.354Z,9.95
2022-10-08T00:41:46.337Z,9.89
2022-10-08T00:42:46.559Z,9.87
2022-10-08T00:43:46.335Z,9.86
2022-10-08T00:44:46.289Z,9.77
2022-10-08T00:45:46.344Z,9.76
2022-10-08T00:46:46.254Z,9.77
2022-10-08T00:47:46.249Z,9.68
2022-10-08T00:48:46.242Z,9.65
2022-10-08T00:49:46.201Z,9.66
2022-10-08T00:50:46.179Z,9.68
2022-10-08T00:51:46.169Z,9.62
2022-10-08T00:52:46.466Z,9.68
2022-10-08T00:53:46.152Z,9.61
2022-10-08T00:54:46.103Z,9.61
2022-10-08T00:55:46.087Z,9.55
2022-10-08T00:56:46.078Z,9.55
2022-10-08T00:57:46.062Z,9.56
2022-10-08T00:58:46.077Z,9.59
2022-10-08T00:59:46.019Z,9.59
2022-10-08T01:00:46.079Z,9.41
2022-10-08T01:01:46.028Z,9.47
2022-10-08T01:02:47.289Z,9.40
2022-10-08T01:03:45.982Z,9.36
2022-10-08T01:04:45.934Z,9.43
2022-10-08T01:05:45.924Z,9.39
2022-10-08T01:06:45.893Z,9.47
2022-10-08T01:07:45.882Z,9.51
2022-10-08T01:08:45.891Z,9.43
2022-10-08T01:09:45.852Z,9.44
2022-10-08T01:10:45.826Z,9.36
2022-10-08T01:11:45.810Z,9.54
2022-10-08T01:12:46.033Z,9.46
2022-10-08T01:13:45.801Z,9.40
2022-10-08T01:14:45.756Z,9.46
2022-10-08T01:15:45.738Z,9.46
2022-10-08T01:16:45.825Z,9.37
2022-10-08T01:17:45.704Z,9.36
2022-10-08T01:18:45.712Z,9.40
2022-10-08T01:19:45.670Z,9.34
2022-10-08T01:20:45.647Z,9.37
2022-10-08T01:21:45.651Z,9.36
2022-10-08T01:22:45.906Z,9.28
2022-10-08T01:23:45.629Z,9.23
2022-10-08T01:24:45.581Z,9.32
2022-10-08T01:25:45.560Z,9.19
2022-10-08T01:26:45.543Z,9.23
2022-10-08T01:27:45.534Z,9.26
2022-10-08T01:28:45.670Z,9.26
2022-10-08T01:29:45.523Z,9.23
2022-10-08T01:30:45.516Z,9.25
2022-10-08T01:31:45.512Z,9.25
2022-10-08T01:32:45.769Z,9.31
2022-10-08T01:33:45.458Z,9.22
2022-10-08T01:34:45.457Z,9.26
2022-10-08T01:35:45.389Z,9.22
2022-10-08T01:36:45.369Z,9.19
2022-10-08T01:37:45.349Z,9.11
2022-10-08T01:38:45.371Z,9.18
2022-10-08T01:39:45.343Z,9.08
2022-10-08T01:40:45.298Z,9.19
2022-10-08T01:41:45.276Z,9.06
2022-10-08T01:42:45.596Z,9.16
2022-10-08T01:43:45.268Z,9.00
2022-10-08T01:44:45.249Z,9.02
2022-10-08T01:45:45.258Z,8.99
2022-10-08T01:46:45.194Z,8.99
2022-10-08T01:47:45.176Z,8.99
2022-10-08T01:48:45.184Z,8.92
2022-10-08T01:49:45.133Z,8.92
2022-10-08T01:50:45.121Z,8.94
2022-10-08T01:51:45.097Z,8.91
2022-10-08T01:52:45.375Z,8.91
2022-10-08T01:53:45.058Z,8.95
2022-10-08T01:54:45.075Z,8.95
2022-10-08T01:55:45.023Z,8.82
2022-10-08T01:56:45.012Z,8.76
2022-10-08T01:57:44.980Z,8.76
2022-10-08T01:58:44.973Z,8.85
2022-10-08T01:59:44.994Z,8.88
2022-10-08T02:00:44.994Z,8.89
2022-10-08T02:01:45.004Z,8.91
2022-10-08T02:02:45.150Z,8.84
2022-10-08T02:03:44.894Z,8.84
2022-10-08T02:04:44.903Z,8.85
2022-10-08T02:05:44.851Z,8.79
2022-10-08T02:06:44.840Z,8.81
2022-10-08T02:07:44.820Z,8.88
2022-10-08T02:08:44.800Z,8.88
2022-10-08T02:09:44.808Z,8.84
2022-10-08T02:10:44.764Z,8.79
2022-10-08T02:11:44.743Z,8.82
2022-10-08T02:12:45.117Z,8.84
2022-10-08T02:13:44.712Z,8.88
2022-10-08T02:14:44.719Z,8.88
2022-10-08T02:15:44.669Z,8.78
2022-10-08T02:16:44.702Z,8.82
2022-10-08T02:17:44.651Z,8.78
2022-10-08T02:18:44.614Z,8.69
2022-10-08T02:19:44.623Z,8.74
2022-10-08T02:20:44.585Z,8.69
2022-10-08T02:21:44.568Z,8.66
2022-10-08T02:22:44.754Z,8.73
2022-10-08T02:23:44.537Z,8.78
2022-10-08T02:24:44.537Z,8.81
2022-10-08T02:25:44.493Z,8.79
2022-10-08T02:26:44.472Z,8.78
2022-10-08T02:27:44.458Z,8.71
2022-10-08T02:28:44.480Z,8.71
2022-10-08T02:29:44.449Z,8.66
2022-10-08T02:30:44.399Z,8.55
2022-10-08T02:31:44.439Z,8.61
2022-10-08T02:32:44.561Z,8.67
2022-10-08T02:33:44.355Z,8.61
2022-10-08T02:34:44.356Z,8.73
2022-10-08T02:35:44.313Z,8.63
2022-10-08T02:36:44.300Z,8.71
2022-10-08T02:37:44.275Z,8.67
2022-10-08T02:38:44.261Z,8.76
2022-10-08T02:39:44.266Z,8.74
2022-10-08T02:40:44.222Z,8.61
2022-10-08T02:41:44.203Z,8.67
2022-10-08T02:42:44.391Z,8.71
2022-10-08T02:43:44.174Z,8.71
2022-10-08T02:44:44.181Z,8.64
2022-10-08T02:45:44.180Z,8.69
2022-10-08T02:46:44.125Z,8.56
2022-10-08T02:47:44.100Z,8.66
2022-10-08T02:48:44.091Z,8.70
2022-10-08T02:49:44.093Z,8.66
2022-10-08T02:50:44.053Z,8.66
2022-10-08T02:51:44.029Z,8.60
2022-10-08T02:52:44.409Z,8.56
2022-10-08T02:53:44.002Z,8.52
2022-10-08T02:54:44.009Z,8.51
2022-10-08T02:55:43.955Z,8.51
2022-10-08T02:56:43.956Z,8.60
2022-10-08T02:57:43.919Z,8.63
2022-10-08T02:58:43.899Z,8.63
2022-10-08T02:59:43.906Z,8.67
2022-10-08T03:00:43.860Z,8.60
2022-10-08T03:01:43.844Z,8.63
2022-10-08T03:02:43.999Z,8.63
2022-10-08T03:03:43.806Z,8.67
2022-10-08T03:04:43.810Z,8.63
2022-10-08T03:05:43.773Z,8.58
2022-10-08T03:06:43.758Z,8.52
2022-10-08T03:07:43.732Z,8.56
2022-10-08T03:08:43.716Z,8.60
2022-10-08T03:09:43.744Z,8.55
2022-10-08T03:10:43.681Z,8.48
2022-10-08T03:11:43.657Z,8.55
2022-10-08T03:12:43.707Z,8.60
2022-10-08T03:13:43.631Z,8.60
2022-10-08T03:14:43.634Z,8.52
2022-10-08T03:15:43.585Z,8.64
2022-10-08T03:16:43.573Z,8.63
2022-10-08T03:17:43.545Z,8.61
2022-10-08T03:18:43.528Z,8.53
2022-10-08T03:19:43.537Z,8.63
2022-10-08T03:20:43.493Z,8.66
2022-10-08T03:21:43.483Z,8.67
2022-10-08T03:22:43.506Z,8.67
2022-10-08T03:23:43.444Z,8.63
2022-10-08T03:24:43.443Z,8.61
2022-10-08T03:25:43.398Z,8.73
2022-10-08T03:26:43.383Z,8.63
2022-10-08T03:27:43.369Z,8.73
2022-10-08T03:28:43.430Z,8.61
2022-10-08T03:29:43.366Z,8.69
2022-10-08T03:30:43.355Z,8.64
2022-10-08T03:31:43.297Z,8.58
2022-10-08T03:32:43.279Z,8.76
2022-10-08T03:33:43.266Z,8.74
2022-10-08T03:34:43.267Z,8.66
2022-10-08T03:35:43.232Z,8.74
2022-10-08T03:36:43.211Z,8.71
2022-10-08T03:37:43.188Z,8.67
2022-10-08T03:38:43.212Z,8.84
2022-10-08T03:39:43.180Z,8.85
2022-10-08T03:40:43.129Z,8.74
2022-10-08T03:41:43.115Z,8.78
2022-10-08T03:42:43.091Z,8.87
2022-10-08T03:43:43.074Z,8.87
2022-10-08T03:44:43.085Z,8.87
2022-10-08T03:45:43.060Z,8.82
2022-10-08T03:46:43.017Z,8.84
2022-10-08T03:47:43.001Z,8.79
2022-10-08T03:48:42.982Z,8.81
2022-10-08T03:49:42.995Z,8.84
2022-10-08T03:50:42.950Z,8.82
2022-10-08T03:51:42.930Z,8.84
2022-10-08T03:52:42.906Z,8.87
2022-10-08T03:53:42.888Z,8.81
2022-10-08T03:54:42.891Z,8.89
2022-10-08T03:55:42.852Z,8.87
2022-10-08T03:56:42.846Z,8.81
2022-10-08T03:57:42.811Z,8.91
2022-10-08T03:58:42.795Z,8.79
2022-10-08T03:59:42.803Z,8.79
2022-10-08T04:00:42.762Z,8.73
2022-10-08T04:01:42.778Z,8.66
2022-10-08T04:02:42.757Z,8.70
2022-10-08T04:03:42.699Z,8.76
2022-10-08T04:04:42.710Z,8.61
2022-10-08T04:05:42.660Z,8.71
2022-10-08T04:06:42.643Z,8.74
2022-10-08T04:07:42.638Z,8.79
2022-10-08T04:08:42.611Z,8.88
2022-10-08T04:09:42.620Z,8.76
2022-10-08T04:10:42.578Z,8.73
2022-10-08T04:11:42.556Z,8.79
2022-10-08T04:12:42.538Z,8.76
2022-10-08T04:13:42.520Z,8.82
2022-10-08T04:14:42.535Z,8.81
2022-10-08T04:15:42.549Z,8.74
2022-10-08T04:16:42.469Z,8.63
2022-10-08T04:17:42.450Z,8.69
2022-10-08T04:18:42.434Z,8.76
2022-10-08T04:19:42.471Z,8.71
2022-10-08T04:20:42.402Z,8.82
2022-10-08T04:21:42.385Z,8.78
2022-10-08T04:22:42.361Z,8.71
2022-10-08T04:23:42.341Z,8.70
2022-10-08T04:24:42.324Z,8.58
2022-10-08T04:25:42.342Z,8.64
2022-10-08T04:26:42.282Z,8.52
2022-10-08T04:27:42.270Z,8.60
2022-10-08T04:28:42.332Z,8.67
2022-10-08T04:29:42.237Z,8.70
2022-10-08T04:30:42.279Z,8.67
2022-10-08T04:31:42.200Z,8.58
2022-10-08T04:32:42.195Z,8.53
2022-10-08T04:33:42.172Z,8.60
2022-10-08T04:34:42.148Z,8.45
2022-10-08T04:35:42.158Z,8.48
2022-10-08T04:36:42.116Z,8.51
2022-10-08T04:37:42.099Z,8.48
2022-10-08T04:38:42.083Z,8.36
2022-10-08T04:39:42.058Z,8.36
2022-10-08T04:40:42.071Z,8.46
2022-10-08T04:41:42.027Z,8.41
2022-10-08T04:42:42.000Z,8.33
2022-10-08T04:43:41.991Z,8.38
2022-10-08T04:44:41.968Z,8.27
2022-10-08T04:45:41.983Z,8.37
2022-10-08T04:46:41.965Z,8.20
2022-10-08T04:47:41.917Z,8.34
2022-10-08T04:48:41.898Z,8.23
2022-10-08T04:49:41.886Z,8.24
2022-10-08T04:50:41.888Z,8.28
2022-10-08T04:51:41.845Z,8.24
2022-10-08T04:52:41.827Z,8.27
2022-10-08T04:53:41.813Z,8.36
2022-10-08T04:54:41.786Z,8.42
2022-10-08T04:55:41.799Z,8.41
2022-10-08T04:56:41.757Z,8.37
2022-10-08T04:57:41.733Z,8.41
2022-10-08T04:58:41.722Z,8.44
2022-10-08T04:59:59.457Z,8.41
2022-10-08T05:00:43.706Z,8.37
2022-10-08T05:01:41.721Z,8.45
2022-10-08T05:02:41.681Z,8.38
2022-10-08T05:03:41.625Z,8.51
2022-10-08T05:04:41.605Z,8.48
2022-10-08T05:05:41.613Z,8.41
2022-10-08T05:06:41.569Z,8.34
2022-10-08T05:07:41.568Z,8.41
2022-10-08T05:08:41.530Z,8.19
2022-10-08T05:09:41.510Z,8.26
2022-10-08T05:10:41.519Z,8.30
2022-10-08T05:11:41.480Z,8.31
2022-10-08T05:12:41.454Z,8.23
2022-10-08T05:13:41.447Z,8.27
2022-10-08T05:14:41.418Z,8.31
2022-10-08T05:15:41.469Z,8.30
2022-10-08T05:16:41.387Z,8.27
2022-10-08T05:17:41.378Z,8.15
2022-10-08T05:18:41.347Z,8.19
2022-10-08T05:19:41.324Z,8.09
2022-10-08T05:20:41.339Z,8.15
2022-10-08T05:21:41.293Z,8.18
2022-10-08T05:22:41.275Z,8.20
2022-10-08T05:23:41.259Z,8.30
2022-10-08T05:24:41.239Z,8.23
2022-10-08T05:25:41.249Z,8.20
2022-10-08T05:27:07.899Z,8.30
2022-10-08T05:27:43.182Z,8.27
2022-10-08T05:28:41.221Z,8.20
2022-10-08T05:29:41.150Z,8.28
2022-10-08T05:30:41.152Z,8.31
2022-10-08T05:31:41.108Z,8.28
2022-10-08T05:32:41.093Z,8.28
2022-10-08T05:33:41.072Z,8.27
2022-10-08T05:34:41.057Z,8.24
2022-10-08T05:35:41.061Z,8.30
2022-10-08T05:36:41.014Z,8.23
2022-10-08T05:37:41.013Z,8.16
2022-10-08T05:38:40.982Z,8.23
2022-10-08T05:39:40.962Z,8.16
2022-10-08T05:40:40.966Z,8.24
2022-10-08T05:41:40.929Z,8.23
2022-10-08T05:42:40.904Z,8.18
2022-10-08T05:43:40.884Z,8.28
2022-10-08T05:44:43.533Z,8.26
2022-10-08T05:45:40.878Z,8.26
2022-10-08T05:46:40.891Z,8.31
2022-10-08T05:47:40.812Z,8.44
2022-10-08T05:48:40.789Z,8.41
2022-10-08T05:49:40.772Z,8.46
2022-10-08T05:50:40.792Z,8.44
2022-10-08T05:51:40.731Z,8.33
2022-10-08T05:52:40.710Z,8.37
2022-10-08T05:53:40.696Z,8.48
2022-10-08T05:54:40.676Z,8.52
2022-10-08T05:55:40.683Z,8.52
2022-10-08T05:56:40.634Z,8.61
2022-10-08T05:57:40.616Z,8.53
2022-10-08T05:58:40.598Z,8.63
2022-10-08T05:59:40.580Z,8.69
2022-10-08T06:00:40.589Z,8.74
2022-10-08T06:01:40.542Z,8.79
2022-10-08T06:02:40.588Z,8.73
2022-10-08T06:03:40.508Z,8.73
2022-10-08T06:04:40.561Z,8.76
2022-10-08T06:05:40.499Z,8.95
2022-10-08T06:06:40.453Z,9.51
2022-10-08T06:07:40.441Z,10.25
2022-10-08T06:08:40.420Z,10.81
2022-10-08T06:09:40.408Z,10.93
2022-10-08T06:10:40.414Z,10.86
2022-10-08T06:11:40.370Z,10.69
2022-10-08T06:12:40.349Z,10.53
2022-10-08T06:13:40.334Z,10.44
2022-10-08T06:14:40.315Z,10.35
2022-10-08T06:15:40.320Z,10.59
2022-10-08T06:16:40.337Z,10.61
2022-10-08T06:17:40.259Z,10.87
2022-10-08T06:18:40.244Z,10.87
2022-10-08T06:19:40.228Z,11.32
2022-10-08T06:20:40.231Z,11.26
2022-10-08T06:21:40.187Z,11.14
2022-10-08T06:22:40.176Z,10.86
2022-10-08T06:23:40.150Z,10.78
2022-10-08T06:24:40.132Z,10.75
2022-10-08T06:25:40.145Z,10.71
2022-10-08T06:26:40.126Z,10.74
2022-10-08T06:27:40.081Z,10.72
2022-10-08T06:28:40.129Z,10.54
2022-10-08T06:29:40.046Z,10.53
2022-10-08T06:30:40.051Z,10.60
2022-10-08T06:31:40.067Z,10.61
2022-10-08T06:32:39.995Z,10.54
2022-10-08T06:33:39.974Z,10.53
2022-10-08T06:34:39.958Z,10.57
2022-10-08T06:35:39.967Z,10.48
2022-10-08T06:36:39.917Z,10.46
2022-10-08T06:37:39.900Z,10.51
2022-10-08T06:38:39.882Z,10.56
2022-10-08T06:39:40.013Z,10.59
2022-10-08T06:40:39.874Z,10.53
2022-10-08T06:41:39.828Z,10.67
2022-10-08T06:42:39.811Z,10.59
2022-10-08T06:43:39.795Z,10.68
2022-10-08T06:44:39.774Z,10.75
2022-10-08T06:45:39.785Z,10.79
2022-10-08T06:46:39.819Z,10.89
2022-10-08T06:47:39.721Z,10.93
2022-10-08T06:48:39.699Z,10.99
2022-10-08T06:49:39.686Z,10.89
2022-10-08T06:50:39.813Z,10.86
2022-10-08T06:51:39.656Z,10.81
2022-10-08T06:52:39.636Z,10.81
2022-10-08T06:53:39.618Z,10.82
2022-10-08T06:54:39.595Z,10.78
2022-10-08T06:55:39.610Z,10.86
2022-10-08T06:56:39.568Z,10.76
2022-10-08T06:57:39.545Z,10.71
2022-10-08T06:58:39.525Z,10.69
2022-10-08T06:59:39.507Z,10.67
2022-10-08T07:00:39.561Z,10.61
2022-10-08T07:01:39.581Z,10.68
2022-10-08T07:02:39.500Z,10.71
2022-10-08T07:03:39.436Z,10.87
2022-10-08T07:04:39.419Z,10.96
2022-10-08T07:05:39.426Z,10.93
2022-10-08T07:06:39.378Z,11.08
2022-10-08T07:07:39.373Z,10.97
2022-10-08T07:08:39.351Z,10.97
2022-10-08T07:09:39.328Z,10.90
2022-10-08T07:10:39.341Z,10.93
2022-10-08T07:11:39.292Z,10.96
2022-10-08T07:12:39.276Z,11.00
2022-10-08T07:13:39.263Z,10.93
2022-10-08T07:14:39.238Z,10.81
2022-10-08T07:15:39.258Z,10.87
2022-10-08T07:16:39.276Z,10.92
2022-10-08T07:17:39.192Z,10.94
2022-10-08T07:18:39.172Z,11.02
2022-10-08T07:19:39.158Z,11.00
2022-10-08T07:20:39.135Z,11.08
2022-10-08T07:21:39.142Z,11.07
2022-10-08T07:22:39.096Z,11.05
2022-10-08T07:23:39.078Z,11.07
2022-10-08T07:24:39.063Z,11.08
2022-10-08T07:25:39.069Z,11.05
2022-10-08T07:26:39.023Z,11.12
2022-10-08T07:27:44.119Z,11.02
2022-10-08T07:28:41.020Z,11.05
2022-10-08T07:29:38.967Z,11.15
2022-10-08T07:30:38.976Z,11.07
2022-10-08T07:31:38.962Z,11.05
2022-10-08T07:32:38.908Z,11.08
2022-10-08T07:33:38.892Z,11.00
2022-10-08T07:34:38.879Z,11.04
2022-10-08T07:35:38.895Z,10.96
2022-10-08T07:36:38.837Z,11.00
2022-10-08T07:37:38.822Z,10.84
2022-10-08T07:38:38.812Z,10.94
2022-10-08T07:39:38.782Z,10.89
2022-10-08T07:40:38.794Z,10.97
2022-10-08T07:41:38.750Z,11.05
2022-10-08T07:42:38.735Z,10.94
2022-10-08T07:43:38.713Z,10.94
2022-10-08T07:44:38.695Z,10.96
2022-10-08T07:45:38.757Z,10.94
2022-10-08T07:46:38.659Z,10.97
2022-10-08T07:47:38.643Z,10.93
2022-10-08T07:48:38.622Z,10.92
2022-10-08T07:49:38.628Z,10.89
2022-10-08T07:50:38.614Z,10.89
2022-10-08T07:51:38.567Z,10.86
2022-10-08T07:52:38.546Z,10.89
2022-10-08T07:53:38.532Z,10.79
2022-10-08T07:54:38.558Z,10.90
2022-10-08T07:55:38.520Z,10.86
2022-10-08T07:56:38.482Z,10.89
2022-10-08T07:57:38.456Z,10.89
2022-10-08T07:58:38.437Z,10.81
2022-10-08T07:59:38.420Z,10.90
2022-10-08T08:00:38.441Z,10.92
2022-10-08T08:01:38.385Z,10.93
2022-10-08T08:02:38.366Z,10.92
2022-10-08T08:03:38.348Z,11.00
2022-10-08T08:04:38.342Z,10.97
2022-10-08T08:05:38.339Z,10.96
2022-10-08T08:06:38.285Z,11.12
2022-10-08T08:07:39.271Z,11.14
2022-10-08T08:08:38.255Z,11.30
2022-10-08T08:09:38.234Z,11.44
2022-10-08T08:10:38.249Z,11.59
2022-10-08T08:11:38.202Z,11.68
2022-10-08T08:12:38.183Z,11.59
2022-10-08T08:13:38.165Z,11.66
2022-10-08T08:14:38.147Z,11.70
2022-10-08T08:15:38.149Z,11.68
2022-10-08T08:16:39.204Z,11.70
2022-10-08T08:17:38.092Z,11.62
2022-10-08T08:18:38.078Z,11.70
2022-10-08T08:19:38.063Z,11.48
2022-10-08T08:20:38.065Z,11.41
2022-10-08T08:21:38.039Z,11.41
2022-10-08T08:22:38.013Z,11.41
2022-10-08T08:23:37.989Z,11.44
2022-10-08T08:24:37.966Z,11.35
2022-10-08T08:25:37.981Z,11.23
2022-10-08T08:26:37.933Z,11.23
2022-10-08T08:27:37.915Z,11.33
2022-10-08T08:28:37.969Z,11.25
2022-10-08T08:29:37.880Z,11.33
2022-10-08T08:30:37.899Z,11.18
2022-10-08T08:31:37.885Z,11.12
2022-10-08T08:32:37.836Z,11.26
2022-10-08T08:33:37.805Z,11.30
2022-10-08T08:34:37.786Z,11.22
2022-10-08T08:35:37.799Z,11.17
2022-10-08T08:36:37.749Z,11.07
2022-10-08T08:37:37.999Z,11.23
2022-10-08T08:38:37.734Z,11.08
2022-10-08T08:39:37.733Z,11.23
2022-10-08T08:40:37.715Z,11.23
2022-10-08T08:41:37.676Z,11.29
2022-10-08T08:42:37.680Z,11.41
2022-10-08T08:43:37.643Z,11.50
2022-10-08T08:44:37.607Z,11.55
2022-10-08T08:45:51.854Z,11.51
2022-10-08T08:46:39.734Z,11.59
2022-10-08T08:47:37.743Z,11.54
2022-10-08T08:48:37.530Z,11.78
2022-10-08T08:49:37.515Z,11.66
2022-10-08T08:50:37.493Z,11.55
2022-10-08T08:51:37.668Z,11.73
2022-10-08T08:52:37.667Z,11.83
2022-10-08T08:53:37.475Z,11.83
2022-10-08T08:54:37.462Z,11.91
2022-10-08T08:55:37.461Z,12.17
2022-10-08T08:56:37.420Z,12.13
2022-10-08T08:57:37.370Z,12.04
2022-10-08T08:58:37.489Z,12.13
2022-10-08T08:59:37.348Z,12.04
2022-10-08T09:00:37.377Z,12.06
2022-10-08T09:01:37.400Z,11.94
2022-10-08T09:02:37.293Z,11.94
2022-10-08T09:03:37.265Z,12.04
2022-10-08T09:04:40.531Z,11.90
2022-10-08T09:05:38.248Z,12.07
2022-10-08T09:06:37.236Z,12.04
2022-10-08T09:07:37.203Z,11.99
2022-10-08T09:08:37.175Z,11.99
2022-10-08T09:09:37.149Z,11.88
2022-10-08T09:10:37.125Z,11.94
2022-10-08T09:11:37.134Z,11.88
2022-10-08T09:12:37.090Z,11.91
2022-10-08T09:13:37.068Z,11.97
2022-10-08T09:14:37.055Z,12.04
2022-10-08T09:15:37.036Z,12.10
2022-10-08T09:16:37.091Z,12.17
2022-10-08T09:17:36.998Z,12.12
2022-10-08T09:18:36.980Z,12.15
2022-10-08T09:19:36.962Z,12.17
2022-10-08T09:20:40.236Z,12.15
2022-10-08T09:21:37.950Z,12.22
2022-10-08T09:22:36.904Z,12.24
2022-10-08T09:23:36.885Z,12.25
2022-10-08T09:24:36.863Z,12.18
2022-10-08T09:25:36.845Z,12.09
2022-10-08T09:26:36.852Z,12.10
2022-10-08T09:27:36.805Z,12.15
2022-10-08T09:28:36.864Z,12.20
2022-10-08T09:29:36.767Z,12.18
2022-10-08T09:30:36.769Z,12.10
2022-10-08T09:31:36.821Z,12.09
2022-10-08T09:32:36.707Z,12.25
2022-10-08T09:33:36.686Z,12.18
2022-10-08T09:34:36.669Z,12.21
2022-10-08T09:35:36.653Z,12.39
2022-10-08T09:36:36.662Z,12.55
2022-10-08T09:37:36.609Z,12.70
2022-10-08T09:38:36.587Z,12.76
2022-10-08T09:39:36.573Z,12.80
2022-10-08T09:40:36.551Z,13.04
2022-10-08T09:41:36.559Z,13.05
2022-10-08T09:42:36.509Z,13.20
2022-10-08T09:43:36.493Z,13.31
2022-10-08T09:44:36.471Z,13.39
2022-10-08T09:45:36.462Z,13.62
2022-10-08T09:46:36.458Z,13.79
2022-10-08T09:47:36.413Z,13.93
2022-10-08T09:48:36.389Z,14.04
2022-10-08T09:49:36.372Z,14.14
2022-10-08T09:50:36.348Z,14.17
2022-10-08T09:51:36.353Z,14.18
2022-10-08T09:52:36.305Z,14.22
2022-10-08T09:53:36.291Z,14.00
2022-10-08T09:54:36.288Z,14.10
2022-10-08T09:55:36.250Z,14.20
2022-10-08T09:56:36.258Z,14.26
2022-10-08T09:57:39.361Z,14.25
2022-10-08T09:58:37.185Z,14.17
2022-10-08T09:59:36.166Z,14.17
2022-10-08T10:00:36.151Z,14.23
2022-10-08T10:01:36.209Z,14.08
2022-10-08T10:02:36.127Z,14.05
2022-10-08T10:03:36.146Z,14.00
2022-10-08T10:04:36.054Z,14.14
2022-10-08T10:05:36.039Z,14.10
2022-10-08T10:06:36.017Z,14.03
2022-10-08T10:07:36.019Z,14.10
2022-10-08T10:08:35.970Z,13.93
2022-10-08T10:09:35.949Z,13.90
2022-10-08T10:10:35.929Z,13.92
2022-10-08T10:11:35.935Z,13.81
2022-10-08T10:12:35.892Z,13.78
2022-10-08T10:13:35.881Z,13.79
2022-10-08T10:14:35.846Z,13.74
2022-10-08T10:15:35.826Z,13.65
2022-10-08T10:16:35.841Z,13.62
2022-10-08T10:17:36.790Z,13.63
2022-10-08T10:18:35.756Z,13.65
2022-10-08T10:19:35.743Z,13.81
2022-10-08T10:20:35.718Z,14.18
2022-10-08T10:21:35.721Z,14.45
2022-10-08T10:22:35.675Z,14.48
2022-10-08T10:23:35.651Z,14.84
2022-10-08T10:24:35.628Z,15.15
2022-10-08T10:25:35.606Z,15.24
2022-10-08T10:26:35.616Z,15.46
2022-10-08T10:27:35.560Z,15.90
2022-10-08T10:28:35.581Z,15.86
2022-10-08T10:29:35.519Z,16.21
2022-10-08T10:30:35.561Z,16.21
2022-10-08T10:31:35.501Z,16.12
2022-10-08T10:32:35.449Z,16.24
2022-10-08T10:33:35.425Z,16.38
2022-10-08T10:34:35.410Z,16.50
2022-10-08T10:35:35.381Z,16.21
2022-10-08T10:36:35.390Z,16.26
2022-10-08T10:37:35.334Z,16.42
2022-10-08T10:38:38.453Z,16.43
2022-10-08T10:39:36.291Z,16.41
2022-10-08T10:40:35.268Z,16.33
2022-10-08T10:41:35.274Z,16.26
2022-10-08T10:42:35.230Z,15.97
2022-10-08T10:43:35.203Z,16.10
2022-10-08T10:44:35.181Z,16.28
2022-10-08T10:45:35.410Z,16.32
2022-10-08T10:46:35.197Z,16.33
2022-10-08T10:47:35.114Z,16.42
2022-10-08T10:48:35.099Z,16.66
2022-10-08T10:49:36.090Z,16.65
2022-10-08T10:50:35.057Z,16.46
2022-10-08T10:51:35.094Z,16.33
2022-10-08T10:52:35.013Z,16.05
2022-10-08T10:53:34.993Z,15.98
2022-10-08T10:54:34.987Z,15.92
2022-10-08T10:55:35.099Z,16.01
2022-10-08T10:56:34.957Z,15.76
2022-10-08T10:57:34.893Z,15.75
2022-10-08T10:58:34.906Z,15.67
2022-10-08T10:59:34.863Z,15.59
2022-10-08T11:00:34.833Z,15.58
2022-10-08T11:01:34.912Z,15.70
2022-10-08T11:02:34.847Z,15.46
2022-10-08T11:03:34.771Z,15.22
2022-10-08T11:04:34.740Z,15.21
2022-10-08T11:05:34.734Z,15.06
2022-10-08T11:06:34.761Z,15.14
2022-10-08T11:07:34.680Z,14.99
2022-10-08T11:08:34.663Z,14.94
2022-10-08T11:09:34.632Z,15.00
2022-10-08T11:10:34.612Z,15.07
2022-10-08T11:11:34.613Z,14.97
2022-10-08T11:12:34.564Z,14.85
2022-10-08T11:13:34.544Z,14.96
2022-10-08T11:14:34.527Z,14.73
2022-10-08T11:15:34.531Z,14.68
2022-10-08T11:16:35.501Z,14.55
2022-10-08T11:17:34.451Z,14.59
2022-10-08T11:18:34.430Z,14.60
2022-10-08T11:19:34.407Z,14.92
2022-10-08T11:20:34.386Z,15.21
2022-10-08T11:21:34.385Z,15.35
2022-10-08T11:22:34.338Z,15.43
2022-10-08T11:23:34.324Z,15.47
2022-10-08T11:24:34.322Z,15.62
2022-10-08T11:25:49.742Z,15.65
2022-10-08T11:26:36.277Z,15.64
2022-10-08T11:27:34.231Z,15.80
2022-10-08T11:28:34.312Z,15.97
2022-10-08T11:29:34.173Z,16.12
2022-10-08T11:30:35.201Z,16.00
2022-10-08T11:31:34.165Z,15.97
2022-10-08T11:32:34.117Z,15.88
2022-10-08T11:33:34.112Z,15.82
2022-10-08T11:34:34.085Z,15.83
2022-10-08T11:35:34.065Z,15.75
2022-10-08T11:36:34.051Z,15.65
2022-10-08T11:37:34.037Z,15.40
2022-10-08T11:38:33.966Z,15.14
2022-10-08T11:39:33.956Z,14.72
2022-10-08T11:40:33.938Z,14.45
2022-10-08T11:41:33.983Z,14.18
2022-10-08T11:42:39.359Z,13.95
2022-10-08T11:43:35.862Z,13.81
2022-10-08T11:44:33.841Z,13.74
2022-10-08T11:45:33.832Z,13.78
2022-10-08T11:46:33.890Z,13.65
2022-10-08T11:47:33.785Z,13.63
2022-10-08T11:48:33.756Z,13.50
2022-10-08T11:49:33.729Z,13.42
2022-10-08T11:50:33.706Z,13.30
2022-10-08T11:51:33.707Z,13.35
2022-10-08T11:52:33.667Z,13.28
2022-10-08T11:53:33.643Z,13.25
2022-10-08T11:54:33.612Z,13.22
2022-10-08T11:55:33.592Z,13.18
2022-10-08T11:56:33.712Z,13.22
2022-10-08T11:58:35.533Z,13.23
2022-10-08T11:59:33.506Z,13.13
2022-10-08T12:00:33.490Z,13.13
2022-10-08T12:01:33.498Z,13.05
2022-10-08T12:02:33.565Z,12.95
2022-10-08T12:03:33.633Z,12.76
2022-10-08T12:04:33.407Z,12.68
2022-10-08T12:05:33.381Z,12.75
2022-10-08T12:06:33.395Z,12.57
2022-10-08T12:07:33.340Z,12.54
2022-10-08T12:08:33.318Z,12.62
2022-10-08T12:09:33.290Z,12.57
2022-10-08T12:10:33.274Z,12.67
2022-10-08T12:11:33.283Z,12.58
2022-10-08T12:12:33.227Z,12.78
2022-10-08T12:13:33.210Z,12.80
2022-10-08T12:14:33.187Z,12.91
2022-10-08T12:15:33.169Z,13.03
2022-10-08T12:16:33.204Z,12.94
2022-10-08T12:17:33.121Z,13.01
2022-10-08T12:18:33.098Z,13.11
2022-10-08T12:19:33.077Z,13.09
2022-10-08T12:20:33.056Z,13.09
2022-10-08T12:21:33.069Z,13.22
2022-10-08T12:22:33.013Z,13.19
2022-10-08T12:23:32.995Z,13.28
2022-10-08T12:24:32.981Z,13.33
2022-10-08T12:25:32.957Z,13.30
2022-10-08T12:26:32.957Z,13.53
2022-10-08T12:27:32.917Z,13.57
2022-10-08T12:28:32.981Z,13.67
2022-10-08T12:29:32.864Z,13.71
2022-10-08T12:30:32.842Z,13.77
2022-10-08T12:31:32.898Z,13.93
2022-10-08T12:32:32.796Z,14.10
2022-10-08T12:33:32.777Z,14.11
2022-10-08T12:34:32.758Z,14.11
2022-10-08T12:35:32.739Z,14.22
2022-10-08T12:36:32.737Z,14.22
2022-10-08T12:37:32.695Z,14.22
2022-10-08T12:38:32.682Z,14.14
2022-10-08T12:39:32.675Z,14.20
2022-10-08T12:40:32.622Z,14.10
2022-10-08T12:41:32.603Z,14.18
2022-10-08T12:42:32.577Z,14.11
2022-10-08T12:43:32.563Z,14.17
2022-10-08T12:44:32.563Z,14.05
2022-10-08T12:45:32.515Z,13.99
2022-10-08T12:46:32.549Z,13.87
2022-10-08T12:47:32.473Z,13.87
2022-10-08T12:48:32.445Z,13.90
2022-10-08T12:49:32.433Z,13.92
2022-10-08T12:50:32.413Z,13.86
2022-10-08T12:51:32.416Z,13.92
2022-10-08T12:52:32.357Z,13.89
2022-10-08T12:53:32.344Z,13.95
2022-10-08T12:54:32.326Z,13.97
2022-10-08T12:55:35.685Z,14.00
2022-10-08T12:56:34.303Z,14.05
2022-10-08T12:57:32.255Z,14.11
2022-10-08T12:58:32.245Z,14.07
2022-10-08T12:59:32.216Z,14.12
2022-10-08T13:00:32.242Z,14.15
2022-10-08T13:01:32.359Z,14.14
2022-10-08T13:02:32.144Z,13.96
2022-10-08T13:03:32.126Z,13.99
2022-10-08T13:04:32.106Z,13.90